Hyalite Weather Station

This weather station provides temperature, wind speed, gust or max wind speed, and wind direction at 9982ft near the summit of Flanders Mountain. This data can be used with temperature and precipitation data from the Shower Falls SNOTEL site. If the data has not been updated recently you can view it directly on datagarrison.com

Elevation
9982ft
Jump to table bottom
Date Time Temperature
deg F
RH, % Wind Speed Wind Gust Wind Direction
11/28/22 20:00 -2.2 82 5 8 SW - 232
11/28/22 19:00 -1.9 82 4 6 SW - 233
11/28/22 18:00 -1.7 82 4 5 SW - 232
11/28/22 17:00 -1.9 82 4 7 SW - 247
11/28/22 16:00 0.9 82 3 6 SW - 243
11/28/22 15:00 2.4 82 4 9 SW - 243
11/28/22 14:00 0.3 82 7 11 SW - 247
11/28/22 13:00 -0.8 82 8 13 SW - 246
11/28/22 12:00 -0.8 82 5 9 SW - 244
11/28/22 11:00 -1.7 82 6 12 W - 268
11/28/22 10:00 -3.0 82 8 13 W - 272
11/28/22 09:00 -4.2 82 9 13 W - 272
11/28/22 08:00 -4.6 82 10 16 W - 271
11/28/22 07:00 -4.1 82 10 16 W - 268
11/28/22 06:00 -3.0 82 12 19 W - 264
11/28/22 05:00 -2.7 82 17 24 W - 261
11/28/22 04:00 -1.7 82 14 24 W - 264
11/28/22 03:00 -0.7 82 14 23 W - 265
11/28/22 02:00 0.2 82 14 23 W - 282
11/28/22 01:00 1.6 82 14 30 W - 279
11/28/22 00:00 2.4 82 13 22 W - 289
11/27/22 23:00 3.9 82 14 24 W - 282
11/27/22 22:00 4.8 82 13 27 W - 289
11/27/22 21:00 5.4 82 10 21 NW - 309
11/27/22 20:00 7.5 82 14 43 W - 285
11/27/22 19:00 12.5 80 22 42 SW - 247
11/27/22 18:00 12.6 80 26 46 SW - 243
11/27/22 17:00 12.9 80 26 46 SW - 243
11/27/22 16:00 13.1 80 29 52 SW - 243
11/27/22 15:00 13.3 81 28 48 SW - 241
11/27/22 14:00 13.8 80 31 48 SW - 243
11/27/22 13:00 13.4 81 23 40 SW - 237
11/27/22 12:00 13.1 80 24 38 SW - 239
11/27/22 11:00 13.4 80 27 41 SW - 247
11/27/22 10:00 12.9 80 24 36 W - 251
11/27/22 09:00 12.6 79 25 40 W - 248
11/27/22 08:00 12.4 79 27 43 SW - 247
11/27/22 07:00 12.4 79 31 46 W - 248
11/27/22 06:00 12.6 80 30 44 W - 248
11/27/22 05:00 14.5 65 28 40 W - 251
11/27/22 04:00 14.4 54 27 37 W - 253
11/27/22 03:00 14.7 55 25 34 W - 253
11/27/22 02:00 15.9 52 24 36 W - 254
11/27/22 01:00 14.8 56 14 29 SW - 247
11/27/22 00:00 14.2 59 12 23 SW - 247
11/26/22 23:00 14.8 60 14 24 W - 260
11/26/22 22:00 13.8 82 14 22 W - 250
11/26/22 21:00 11.9 82 11 17 W - 261
11/26/22 20:00 12.0 82 13 20 W - 263
11/26/22 19:00 12.3 82 14 20 W - 264